Lewistown, MT

10:45 AM MDT on September 17, 2014 (GMT -0600)
Lewistown Municipal | Change Station
CLOSE
Current Station
Airport
Location: Lewistown,
Elevation: 4167 ft
Nearby Weather Stations

Elev 4167 ft 47.05 °N, 109.47 °W | Updated 51 minutes ago

Clear
Clear
70 °F
Feels Like 70 °F
N
4
Wind Variable Wind from East

Today
High -- | Low -- °F
--% Chance of Precip.
Yesterday
High -- | Low -- °F
Precip. -- in
6:58 AM 7:25 PM
Waning Crescent, 35% visible
Pressure 29.86 in
Visibility 10.0 miles
Clouds Clear
Dew Point 48 °F
Humidity 46%
Rainfall 0.00 in
Snow Depth 0 in , 0 in , 0 in
UV 3 out of 12
Pollen 6.90 out of 12
Air Quality Not available.
Flu Activity Not available.
METAR KLWT 171554Z AUTO 09003KT 10SM CLR 21/09 A2995 RMK AO2 SLP110 T02110089

More Conditions Fewer Conditions

Pressure 29.86 in
Visibility 10.0 miles
Clouds Clear
Dew Point 48 °F
Humidity 46%
Rainfall 0.00 in
Snow Depth 0 in , 0 in , 0 in
UV 3 out of 12
Pollen 6.90 out of 12
Air Quality Not available.
Flu Activity Not available.
METAR KLWT 171554Z AUTO 09003KT 10SM CLR 21/09 A2995 RMK AO2 SLP110 T02110089

More Conditions Fewer Conditions

10-Day Weather Forecast

Almanac

Astronomy

Sep. 17, 2014 Rise Set
Actual Time 6:58 AM MDT 7:25 PM MDT
Civil Twilight 6:27 AM MDT 7:56 PM MDT
Nautical Twilight 5:51 AM MDT 8:32 PM MDT
Astronomical Twilight 5:13 AM MDT 9:09 PM MDT
Moon 12:44 AM MDT 3:53 PM MDT
Length of Visible Light 13h 28m
Length of Day
12h 27m
Tomorrow will be 3m 20s shorter.
Waning Crescent, 35% of the Moon is Illuminated
Today
Waning Crescent
Sep 24
New
Oct 1
First Quarter
Oct 8
Full
Oct 15
Last Quarter

Today's Extremes

State Highs State Lows

Community

WunderPhotos

Upload Photos

1,754,100 photos uploaded!

Nearby

Snow Depth

Station Depth Elevation
Flattop Mountain 0 in 6300 ft
Monument Peak 0 in 8850 ft
Copper Bottom 0 in 5200 ft
Carrot Basin 1 in 9000 ft
Calvert Creek 0 in 6430 ft

Earthquake Activity

City Distance Mag. Time & Date
No recent earthquake activity has been reported nearby.
Minimum magnitude displayed is 2.5.

Coastal Water Temperatures

Place Temperature
No Stations Reporting

Nearby Weather Stations